Time;durP1;ratioP1;P1;durP2;ratioP2;P2;SDS_P1;SDS_P2;PMS_P1;PMS_P2;Temp;Humidity;BMP_temperature;BMP_pressure;BME280_temperature;BME280_humidity;BME280_pressure;Samples;Min_cycle;Max_cycle;Signal;HPM_P1;HPM_P2
2022/07/17 00:02:06;;;;;;;5.78;0.43;;;17.50;64.60;;;;;;5069319;28;20108;-81
2022/07/17 00:04:32;;;;;;;5.30;0.40;;;17.50;64.70;;;;;;5052556;28;20037;-83
2022/07/17 00:06:57;;;;;;;4.75;0.68;;;17.50;64.70;;;;;;5052410;28;20029;-82
2022/07/17 00:09:23;;;;;;;2.72;0.32;;;17.40;64.60;;;;;;5053723;28;20032;-83
2022/07/17 00:11:49;;;;;;;2.92;0.77;;;17.50;64.70;;;;;;5069248;28;20488;-83
2022/07/17 00:14:14;;;;;;;2.83;0.40;;;17.40;64.80;;;;;;5068971;28;20048;-83
2022/07/17 00:16:40;;;;;;;2.10;0.30;;;17.40;64.80;;;;;;5052311;28;20021;-83
2022/07/17 00:19:06;;;;;;;2.22;0.30;;;17.40;65.00;;;;;;5069239;28;20017;-83
2022/07/17 00:21:32;;;;;;;2.05;0.45;;;17.40;65.10;;;;;;5068814;28;20025;-81
2022/07/17 00:23:58;;;;;;;1.05;0.30;;;17.40;65.30;;;;;;5035633;28;20024;-82
2022/07/17 00:26:24;;;;;;;4.50;0.40;;;17.30;65.30;;;;;;5068967;28;20029;-82
2022/07/17 00:28:49;;;;;;;2.53;0.40;;;17.30;65.50;;;;;;5051981;28;20029;-82
2022/07/17 00:31:15;;;;;;;2.88;0.40;;;17.30;65.60;;;;;;5052207;28;20111;-82
2022/07/17 00:33:41;;;;;;;4.35;0.40;;;17.30;65.70;;;;;;5035569;28;20025;-83
2022/07/17 00:36:07;;;;;;;2.20;0.47;;;17.20;65.70;;;;;;5052141;28;20025;-82
2022/07/17 00:38:33;;;;;;;3.50;0.30;;;17.20;65.80;;;;;;5052168;28;20025;-82
2022/07/17 00:40:59;;;;;;;3.05;0.35;;;17.20;65.90;;;;;;5053427;28;20017;-82
2022/07/17 00:43:26;;;;;;;1.63;0.30;;;17.20;65.90;;;;;;5053235;28;20116;-82
2022/07/17 00:46:10;;;;;;;3.03;0.38;;;17.10;66.00;;;;;;5052087;28;20071;-83
2022/07/17 00:48:36;;;;;;;4.82;0.50;;;17.10;66.10;;;;;;5051944;28;20507;-83
2022/07/17 00:51:01;;;;;;;3.05;0.45;;;17.10;66.10;;;;;;5068692;28;20033;-83
2022/07/17 00:53:31;;;;;;;2.35;0.40;;;17.00;66.20;;;;;;5051661;28;20053;-82
2022/07/17 00:55:58;;;;;;;2.65;0.60;;;17.00;66.30;;;;;;5051795;28;20071;-83
2022/07/17 00:58:25;;;;;;;4.63;0.43;;;17.00;66.40;;;;;;5051839;28;20461;-82
2022/07/17 01:00:52;;;;;;;2.55;0.40;;;16.90;66.40;;;;;;5069079;28;20032;-83
2022/07/17 01:03:20;;;;;;;3.10;0.30;;;16.90;66.60;;;;;;5052342;28;20096;-83
2022/07/17 01:05:46;;;;;;;4.25;0.60;;;16.90;66.80;;;;;;5051798;28;20116;-83
2022/07/17 01:08:12;;;;;;;1.15;0.30;;;16.80;66.90;;;;;;5051995;28;20024;-83
2022/07/17 01:10:38;;;;;;;4.65;0.30;;;16.80;67.10;;;;;;5051863;28;20047;-83
2022/07/17 01:13:04;;;;;;;2.70;0.50;;;16.80;67.30;;;;;;5053040;28;20025;-83
2022/07/17 01:15:31;;;;;;;5.15;0.52;;;16.70;67.60;;;;;;5051670;28;20362;-83
2022/07/17 01:17:58;;;;;;;3.17;0.63;;;16.60;67.70;;;;;;5051724;28;20044;-82
2022/07/17 01:20:23;;;;;;;3.38;0.60;;;16.60;67.90;;;;;;5052917;28;20021;-82
2022/07/17 01:22:50;;;;;;;2.05;0.50;;;16.60;68.10;;;;;;5051736;28;20128;-83
2022/07/17 01:25:20;;;;;;;4.90;1.23;;;16.60;68.30;;;;;;5051580;28;20521;-83
2022/07/17 01:27:46;;;;;;;4.28;0.68;;;16.60;68.50;;;;;;5051561;28;20029;-82
2022/07/17 01:30:12;;;;;;;2.58;0.60;;;16.50;68.50;;;;;;5068230;28;20435;-82
2022/07/17 01:32:39;;;;;;;4.30;0.60;;;16.40;68.80;;;;;;5051329;28;20056;-83
2022/07/17 01:35:07;;;;;;;3.85;0.57;;;16.50;69.00;;;;;;5052822;28;20104;-83
2022/07/17 01:37:32;;;;;;;2.28;0.50;;;16.40;69.10;;;;;;5051603;28;20063;-83
2022/07/17 01:39:58;;;;;;;4.35;0.95;;;16.40;69.30;;;;;;5053343;28;20119;-83
2022/07/17 01:42:26;;;;;;;3.55;0.60;;;16.40;69.40;;;;;;5072160;28;20381;-83
2022/07/17 01:44:54;;;;;;;4.90;0.73;;;16.30;69.60;;;;;;5055536;28;20036;-83
2022/07/17 01:47:20;;;;;;;4.35;0.70;;;16.30;69.70;;;;;;5055291;28;20021;-82
2022/07/17 01:49:47;;;;;;;5.57;0.80;;;16.30;69.80;;;;;;5055004;28;20028;-83
2022/07/17 01:52:12;;;;;;;3.70;0.63;;;16.20;69.80;;;;;;5056088;28;20066;-82
2022/07/17 01:54:39;;;;;;;2.10;0.40;;;16.20;70.00;;;;;;5071837;28;20022;-82
2022/07/17 01:57:04;;;;;;;3.50;0.57;;;16.20;70.10;;;;;;5054867;28;20029;-82
2022/07/17 01:59:30;;;;;;;4.18;0.40;;;16.20;70.20;;;;;;5054999;28;20021;-77
2022/07/17 02:01:56;;;;;;;4.97;0.50;;;16.10;70.20;;;;;;5071761;28;20032;-77
2022/07/17 02:04:21;;;;;;;1.90;0.60;;;16.10;70.30;;;;;;5055123;28;20392;-77
2022/07/17 02:06:47;;;;;;;4.13;0.55;;;16.10;70.50;;;;;;5072019;28;20392;-77
2022/07/17 02:09:13;;;;;;;3.47;0.52;;;16.00;70.60;;;;;;5071582;28;20032;-77
2022/07/17 02:11:38;;;;;;;3.28;0.57;;;16.00;70.60;;;;;;5071611;28;20066;-77
2022/07/17 02:14:04;;;;;;;4.43;0.57;;;16.00;70.70;;;;;;5071402;28;20029;-77
2022/07/17 02:16:29;;;;;;;3.60;0.57;;;15.90;70.80;;;;;;5071726;28;20469;-77
2022/07/17 02:18:55;;;;;;;5.18;0.60;;;15.90;70.90;;;;;;5071626;28;20029;-76
2022/07/17 02:21:21;;;;;;;2.88;0.40;;;15.90;71.10;;;;;;5071594;28;20032;-76
2022/07/17 02:23:46;;;;;;;2.22;0.50;;;15.90;71.20;;;;;;5054620;28;20083;-77
2022/07/17 02:26:12;;;;;;;1.45;0.45;;;15.80;71.20;;;;;;5071360;28;20040;-77
2022/07/17 02:28:37;;;;;;;3.00;0.43;;;15.80;71.30;;;;;;5071129;28;20496;-77
2022/07/17 02:31:03;;;;;;;4.43;0.70;;;15.80;71.40;;;;;;5054331;28;20040;-82
2022/07/17 02:33:29;;;;;;;4.18;0.50;;;15.80;71.50;;;;;;5071409;28;20033;-82
2022/07/17 02:35:54;;;;;;;3.85;0.50;;;15.70;71.60;;;;;;5054362;28;20021;-82
2022/07/17 02:38:20;;;;;;;2.92;0.45;;;15.70;71.70;;;;;;5054293;28;20112;-82
2022/07/17 02:40:45;;;;;;;2.47;0.47;;;15.70;71.80;;;;;;5070900;28;20461;-83
2022/07/17 02:43:11;;;;;;;2.00;0.40;;;15.60;72.00;;;;;;5055494;28;20029;-83
2022/07/17 02:45:37;;;;;;;2.38;0.40;;;15.60;72.10;;;;;;5054154;28;20052;-82
2022/07/17 02:48:03;;;;;;;2.08;0.40;;;15.60;72.30;;;;;;5054435;28;20025;-82
2022/07/17 02:50:28;;;;;;;2.58;0.60;;;15.60;72.50;;;;;;5054265;28;20381;-83
2022/07/17 02:52:54;;;;;;;3.75;0.60;;;15.60;72.70;;;;;;5055158;28;20049;-82
2022/07/17 02:55:20;;;;;;;5.13;0.63;;;15.50;72.80;;;;;;5054028;28;20416;-82
2022/07/17 02:57:47;;;;;;;3.75;0.45;;;15.60;73.10;;;;;;5070596;28;20536;-82
2022/07/17 03:00:15;;;;;;;3.88;0.90;;;15.50;73.20;;;;;;5055230;28;20095;-82
2022/07/17 03:02:42;;;;;;;1.58;0.30;;;15.50;73.40;;;;;;5070473;28;20481;-82
2022/07/17 03:05:08;;;;;;;2.25;0.40;;;15.50;73.50;;;;;;5055074;28;20028;-83
2022/07/17 03:07:34;;;;;;;5.38;0.50;;;15.50;73.60;;;;;;5054975;28;20033;-82
2022/07/17 03:09:59;;;;;;;3.35;0.50;;;15.40;73.60;;;;;;5054057;28;20036;-77
2022/07/17 03:12:25;;;;;;;3.40;0.60;;;15.40;73.60;;;;;;5055018;28;20055;-77
2022/07/17 03:14:50;;;;;;;6.13;0.82;;;15.40;73.70;;;;;;5054032;28;20139;-77
2022/07/17 03:17:16;;;;;;;2.63;0.45;;;15.40;73.70;;;;;;5053394;28;20029;-77
2022/07/17 03:19:42;;;;;;;5.30;0.60;;;15.40;73.60;;;;;;5053929;28;20024;-77
2022/07/17 03:22:07;;;;;;;1.90;0.43;;;15.30;73.60;;;;;;5036924;28;20029;-77
2022/07/17 03:24:33;;;;;;;2.50;0.50;;;15.30;73.60;;;;;;5070244;28;20393;-77
2022/07/17 03:26:59;;;;;;;4.05;0.50;;;15.30;73.70;;;;;;5070495;28;20025;-77
2022/07/17 03:29:25;;;;;;;2.92;0.75;;;15.20;73.80;;;;;;5070148;28;20029;-77
2022/07/17 03:31:50;;;;;;;2.00;0.50;;;15.20;73.90;;;;;;5054732;28;20025;-77
2022/07/17 03:34:16;;;;;;;2.22;0.65;;;15.20;74.10;;;;;;5070237;28;20029;-77
2022/07/17 03:36:42;;;;;;;4.10;0.73;;;15.10;74.20;;;;;;5070256;28;20033;-77
2022/07/17 03:39:08;;;;;;;4.13;0.60;;;15.10;74.30;;;;;;5070133;28;20035;-77
2022/07/17 03:41:34;;;;;;;2.33;0.38;;;15.10;74.40;;;;;;5054887;28;20357;-77
2022/07/17 03:44:00;;;;;;;4.20;0.85;;;15.10;74.50;;;;;;5053037;28;20029;-77
2022/07/17 03:46:25;;;;;;;1.88;0.60;;;15.10;74.70;;;;;;5070027;28;20052;-77
2022/07/17 03:48:51;;;;;;;5.07;0.80;;;15.00;74.90;;;;;;5069709;28;20075;-77
2022/07/17 03:51:17;;;;;;;4.85;0.50;;;15.00;75.10;;;;;;5053126;28;20025;-77
2022/07/17 03:53:43;;;;;;;3.15;0.65;;;15.00;75.30;;;;;;5052705;28;20041;-77
2022/07/17 03:56:08;;;;;;;6.07;0.85;;;15.00;75.40;;;;;;5052992;28;20052;-77
2022/07/17 03:58:34;;;;;;;4.60;0.68;;;15.00;75.50;;;;;;5054864;28;20369;-77
2022/07/17 04:01:00;;;;;;;5.50;0.90;;;15.00;75.70;;;;;;5069536;28;20033;-77
2022/07/17 04:03:26;;;;;;;4.03;0.70;;;15.00;75.90;;;;;;5068728;28;20432;-77
2022/07/17 04:05:52;;;;;;;1.98;0.68;;;14.90;75.90;;;;;;5069319;28;20032;-76
2022/07/17 04:08:18;;;;;;;3.85;0.70;;;14.90;76.00;;;;;;5069708;28;20078;-77
2022/07/17 04:10:44;;;;;;;1.65;0.52;;;14.90;76.30;;;;;;5069394;28;20036;-77
2022/07/17 04:13:10;;;;;;;1.65;0.52;;;14.90;76.50;;;;;;5052767;28;20053;-76
2022/07/17 04:15:57;;;;;;;3.30;0.70;;;14.90;76.60;;;;;;5053670;28;20025;-77
2022/07/17 04:18:29;;;;;;;2.83;0.60;;;14.90;76.60;;;;;;5052813;28;20389;-77
2022/07/17 04:20:58;;;;;;;6.43;0.93;;;14.90;76.50;;;;;;5052393;28;20078;-77
2022/07/17 04:23:24;;;;;;;5.63;0.85;;;14.90;76.40;;;;;;5069407;28;20024;-77
2022/07/17 04:25:50;;;;;;;2.65;0.70;;;14.90;76.40;;;;;;5069275;28;20124;-77
2022/07/17 04:28:16;;;;;;;2.33;0.80;;;14.90;76.40;;;;;;5052349;28;20101;-77
2022/07/17 04:30:41;;;;;;;2.80;0.82;;;14.90;76.40;;;;;;5053579;28;20021;-76
2022/07/17 04:33:07;;;;;;;7.30;1.02;;;14.90;76.50;;;;;;5052069;28;20078;-77
2022/07/17 04:35:35;;;;;;;2.55;0.55;;;14.90;76.60;;;;;;5063364;28;20035;-77
2022/07/17 04:38:01;;;;;;;5.07;0.68;;;15.00;76.70;;;;;;5055355;28;20056;-77
2022/07/17 04:40:27;;;;;;;2.75;0.50;;;15.00;76.80;;;;;;5073367;28;20059;-77
2022/07/17 04:42:53;;;;;;;6.28;0.80;;;15.00;76.80;;;;;;5055169;28;20056;-77
2022/07/17 04:45:19;;;;;;;1.88;0.50;;;15.00;76.80;;;;;;5055818;28;20134;-77
2022/07/17 04:47:44;;;;;;;4.13;0.60;;;15.00;76.80;;;;;;5055493;28;20039;-77
2022/07/17 04:50:10;;;;;;;4.57;0.75;;;15.10;76.90;;;;;;5055751;28;20051;-77
2022/07/17 04:52:36;;;;;;;2.22;0.60;;;15.10;76.80;;;;;;5038943;28;20083;-77
2022/07/17 04:55:03;;;;;;;4.50;0.85;;;15.10;76.80;;;;;;5073234;28;20036;-77
2022/07/17 04:57:29;;;;;;;3.10;0.50;;;15.10;76.90;;;;;;5055313;28;20021;-77
2022/07/17 04:59:54;;;;;;;3.67;0.60;;;15.20;77.10;;;;;;5055365;28;20342;-77
2022/07/17 05:02:20;;;;;;;5.40;0.95;;;15.20;77.20;;;;;;5055531;28;20029;-77
2022/07/17 05:04:48;;;;;;;4.70;0.88;;;15.20;77.10;;;;;;5055458;28;20203;-77
2022/07/17 05:07:14;;;;;;;4.40;0.80;;;15.20;77.20;;;;;;5055729;28;20028;-77
2022/07/17 05:09:40;;;;;;;2.95;0.70;;;15.30;77.20;;;;;;5055347;28;20399;-77
2022/07/17 05:12:06;;;;;;;2.42;0.50;;;15.30;77.30;;;;;;5039687;28;20373;-77
2022/07/17 05:14:31;;;;;;;5.85;0.70;;;15.30;77.30;;;;;;5039324;28;20388;-77
2022/07/17 05:16:57;;;;;;;2.55;0.68;;;15.30;77.40;;;;;;5059193;28;20024;-77
2022/07/17 05:19:23;;;;;;;4.05;0.80;;;15.30;78.10;;;;;;5043013;28;20036;-77
2022/07/17 05:21:50;;;;;;;3.05;0.68;;;15.30;78.30;;;;;;5042395;28;20028;-77
2022/07/17 05:24:15;;;;;;;3.50;0.70;;;15.40;77.90;;;;;;5042269;28;20064;-77
2022/07/17 05:26:41;;;;;;;3.45;0.60;;;15.40;78.00;;;;;;5059102;28;20048;-77
2022/07/17 05:29:07;;;;;;;5.55;0.77;;;15.40;78.10;;;;;;5058869;28;20032;-77
2022/07/17 05:31:33;;;;;;;3.55;0.50;;;15.50;78.20;;;;;;5058935;28;20032;-77
2022/07/17 05:33:58;;;;;;;5.05;0.82;;;15.50;78.20;;;;;;5042483;28;20372;-77
2022/07/17 05:36:24;;;;;;;4.18;0.60;;;15.50;78.20;;;;;;5042117;28;20036;-77
2022/07/17 05:38:50;;;;;;;5.30;1.00;;;15.50;78.20;;;;;;5076451;28;20029;-77
2022/07/17 05:41:15;;;;;;;3.53;0.80;;;15.60;78.30;;;;;;5042060;28;20025;-77
2022/07/17 05:43:41;;;;;;;4.40;1.05;;;15.60;78.30;;;;;;5042106;28;20024;-77
2022/07/17 05:46:07;;;;;;;4.13;0.77;;;15.70;78.20;;;;;;5058593;28;20137;-77
2022/07/17 05:48:33;;;;;;;5.05;0.85;;;15.70;78.10;;;;;;5076443;28;20035;-77
2022/07/17 05:50:58;;;;;;;7.57;1.00;;;15.80;78.00;;;;;;5041833;28;20024;-78
2022/07/17 05:53:24;;;;;;;3.95;0.82;;;15.80;77.80;;;;;;5038235;28;20114;-82
2022/07/17 05:55:50;;;;;;;3.90;0.65;;;15.80;77.70;;;;;;5055049;28;20024;-82
2022/07/17 05:58:16;;;;;;;4.55;0.90;;;15.90;77.50;;;;;;5050223;28;20420;-83
2022/07/17 06:00:41;;;;;;;4.82;0.73;;;15.90;77.40;;;;;;5044819;28;20030;-83
2022/07/17 06:03:07;;;;;;;5.10;0.60;;;15.90;77.20;;;;;;5071427;28;20052;-82
2022/07/17 06:05:33;;;;;;;2.28;0.40;;;16.00;77.00;;;;;;5050004;28;20053;-83
2022/07/17 06:07:58;;;;;;;4.22;0.68;;;16.00;76.90;;;;;;5056561;28;20021;-81
2022/07/17 06:10:26;;;;;;;2.95;0.50;;;16.10;76.70;;;;;;5054628;28;20385;-81
2022/07/17 06:12:54;;;;;;;3.00;0.43;;;16.10;76.60;;;;;;5055873;28;20025;-81
2022/07/17 06:15:21;;;;;;;3.10;0.75;;;16.10;76.50;;;;;;5054719;28;20080;-81
2022/07/17 06:17:47;;;;;;;4.45;0.80;;;16.10;76.60;;;;;;5054550;28;20480;-81
2022/07/17 06:20:14;;;;;;;2.97;0.50;;;16.20;76.50;;;;;;5054812;28;20092;-81
2022/07/17 06:22:40;;;;;;;1.08;0.38;;;16.20;76.30;;;;;;5054365;28;20017;-81
2022/07/17 06:25:07;;;;;;;4.43;0.52;;;16.20;76.10;;;;;;5050466;28;20010;-82
2022/07/17 06:27:33;;;;;;;3.33;0.47;;;16.30;76.00;;;;;;5073611;28;20025;-81
2022/07/17 06:29:59;;;;;;;4.65;0.50;;;16.30;75.70;;;;;;5054032;28;20024;-81
2022/07/17 06:32:25;;;;;;;3.50;0.50;;;16.30;75.50;;;;;;5040981;28;20108;-80
2022/07/17 06:34:50;;;;;;;5.88;0.70;;;16.30;75.40;;;;;;5051185;28;20043;-81
2022/07/17 06:37:16;;;;;;;5.07;0.93;;;16.40;75.20;;;;;;5057152;28;20029;-81
2022/07/17 06:39:42;;;;;;;3.35;0.47;;;16.40;74.90;;;;;;5072515;28;20029;-81
2022/07/17 06:42:07;;;;;;;3.17;0.63;;;16.40;74.50;;;;;;5038782;28;20128;-80
2022/07/17 06:44:34;;;;;;;6.25;0.60;;;16.50;74.30;;;;;;5055563;28;20108;-81
2022/07/17 06:47:00;;;;;;;2.08;0.47;;;16.50;74.10;;;;;;5038471;28;20437;-81
2022/07/17 06:49:25;;;;;;;1.80;0.40;;;16.60;74.00;;;;;;5055706;28;20071;-81
2022/07/17 06:51:51;;;;;;;3.90;0.40;;;16.60;73.70;;;;;;5038210;28;20025;-80
2022/07/17 06:54:17;;;;;;;4.00;0.82;;;16.60;73.50;;;;;;5054130;28;20132;-81
2022/07/17 06:56:43;;;;;;;5.65;0.50;;;16.60;73.40;;;;;;5055518;28;20092;-80
2022/07/17 06:59:09;;;;;;;4.20;0.50;;;16.60;73.30;;;;;;5054202;28;20144;-80
2022/07/17 07:01:38;;;;;;;5.85;0.68;;;16.70;73.40;;;;;;5018299;28;20390;-81
2022/07/17 07:04:04;;;;;;;4.30;0.50;;;16.70;73.30;;;;;;5035715;28;20061;-82
2022/07/17 07:06:30;;;;;;;4.65;0.70;;;16.80;73.20;;;;;;5053864;28;20025;-81
2022/07/17 07:08:57;;;;;;;4.50;0.77;;;16.80;73.10;;;;;;5037298;28;20033;-81
2022/07/17 07:11:23;;;;;;;4.80;0.40;;;16.80;72.80;;;;;;5048208;28;20112;-81
2022/07/17 07:13:49;;;;;;;2.70;0.50;;;16.90;72.70;;;;;;5034878;28;20021;-81
2022/07/17 07:16:15;;;;;;;2.22;0.30;;;16.90;72.60;;;;;;5030339;28;20422;-80
2022/07/17 07:18:40;;;;;;;2.35;0.50;;;17.00;72.40;;;;;;5030367;28;20458;-80
2022/07/17 07:21:06;;;;;;;3.45;0.55;;;17.00;72.40;;;;;;4997431;28;20030;-81
2022/07/17 07:23:32;;;;;;;5.47;0.60;;;17.00;73.00;;;;;;5013922;28;20045;-80
2022/07/17 07:25:57;;;;;;;2.83;0.38;;;17.10;72.30;;;;;;5030055;28;20480;-80
2022/07/17 07:28:23;;;;;;;3.63;0.70;;;17.10;72.20;;;;;;5030235;28;20038;-80
2022/07/17 07:30:48;;;;;;;4.15;0.60;;;17.10;72.20;;;;;;5013728;28;20482;-80
2022/07/17 07:33:16;;;;;;;2.55;0.50;;;17.20;72.00;;;;;;5030206;28;20474;-80
2022/07/17 07:35:42;;;;;;;4.07;0.45;;;17.20;71.70;;;;;;5014953;28;20049;-81
2022/07/17 07:38:08;;;;;;;4.05;0.50;;;17.30;71.60;;;;;;5029172;28;20212;-82
2022/07/17 07:40:34;;;;;;;4.50;0.60;;;17.30;71.40;;;;;;4997119;28;20113;-82
2022/07/17 07:42:59;;;;;;;1.73;0.45;;;17.40;71.40;;;;;;5054296;28;20389;-82
2022/07/17 07:45:25;;;;;;;3.53;0.40;;;17.50;71.30;;;;;;5053106;28;20064;-82
2022/07/17 07:47:51;;;;;;;4.95;0.68;;;17.50;71.30;;;;;;5029548;28;20025;-83
2022/07/17 07:50:18;;;;;;;1.92;0.38;;;17.60;71.40;;;;;;5033050;28;20421;-82
2022/07/17 07:52:44;;;;;;;4.68;0.82;;;17.60;71.40;;;;;;5048520;28;20099;-82
2022/07/17 07:55:11;;;;;;;4.88;0.55;;;17.70;71.40;;;;;;5052605;28;20053;-82
2022/07/17 07:57:37;;;;;;;4.95;0.70;;;17.70;71.60;;;;;;5030718;28;20473;-81
2022/07/17 08:00:05;;;;;;;5.43;0.60;;;17.80;71.60;;;;;;5054000;28;20029;-82
2022/07/17 08:02:31;;;;;;;1.65;0.43;;;17.80;71.40;;;;;;5053952;28;20499;-83
2022/07/17 08:04:57;;;;;;;4.57;0.45;;;17.90;71.20;;;;;;5052728;28;20017;-82
2022/07/17 08:07:22;;;;;;;5.53;0.40;;;18.00;71.10;;;;;;5035987;28;20044;-83
2022/07/17 08:09:48;;;;;;;3.00;0.52;;;18.00;70.70;;;;;;5052659;28;20100;-82
2022/07/17 08:12:14;;;;;;;3.88;0.50;;;18.10;70.50;;;;;;5052571;28;20048;-82
2022/07/17 08:14:39;;;;;;;3.90;0.45;;;18.20;70.30;;;;;;5053709;28;20061;-82
2022/07/17 08:17:05;;;;;;;4.20;0.57;;;18.20;69.80;;;;;;5052326;28;20373;-82
2022/07/17 08:19:31;;;;;;;4.35;0.55;;;18.20;69.60;;;;;;5036032;28;20033;-82
2022/07/17 08:21:56;;;;;;;2.00;0.50;;;18.30;69.40;;;;;;5035828;28;20053;-82
2022/07/17 08:24:22;;;;;;;1.98;0.40;;;18.40;69.20;;;;;;5053651;28;20029;-82
2022/07/17 08:26:48;;;;;;;4.97;0.68;;;18.40;68.80;;;;;;5019412;28;20033;-82
2022/07/17 08:29:15;;;;;;;4.65;0.60;;;18.50;68.60;;;;;;5052108;28;20115;-81
2022/07/17 08:31:41;;;;;;;3.90;0.50;;;18.60;68.40;;;;;;5019652;28;20029;-82
2022/07/17 08:34:07;;;;;;;3.53;0.55;;;18.60;68.00;;;;;;5052138;28;20111;-82
2022/07/17 08:36:33;;;;;;;3.35;0.43;;;18.70;67.80;;;;;;5019077;28;20028;-82
2022/07/17 08:38:59;;;;;;;4.45;0.50;;;18.80;67.70;;;;;;5053551;28;20418;-82
2022/07/17 08:41:24;;;;;;;3.00;0.45;;;18.80;67.50;;;;;;5035705;28;20029;-81
2022/07/17 08:43:52;;;;;;;3.22;0.45;;;18.90;67.30;;;;;;5053111;28;20477;-81
2022/07/17 08:46:18;;;;;;;4.03;0.50;;;18.90;67.10;;;;;;5019576;28;20511;-81
2022/07/17 08:48:45;;;;;;;4.30;0.60;;;18.90;67.00;;;;;;5052081;28;20056;-82
2022/07/17 08:51:12;;;;;;;3.22;0.43;;;19.00;67.10;;;;;;5068743;28;20040;-82
2022/07/17 08:53:39;;;;;;;3.25;0.40;;;19.10;66.90;;;;;;5035085;28;20057;-81
2022/07/17 08:56:05;;;;;;;4.43;0.60;;;19.10;66.50;;;;;;5051827;28;20021;-81
2022/07/17 08:58:31;;;;;;;2.28;0.38;;;19.20;66.10;;;;;;5035434;28;20025;-81
2022/07/17 09:00:56;;;;;;;4.43;0.63;;;19.30;65.70;;;;;;5051958;28;20029;-82
2022/07/17 09:03:23;;;;;;;3.50;0.50;;;19.30;65.40;;;;;;5035375;28;20066;-82
2022/07/17 09:05:49;;;;;;;1.73;0.40;;;19.40;65.40;;;;;;5051943;28;20033;-82
2022/07/17 09:08:21;;;;;;;1.50;0.40;;;19.40;65.20;;;;;;5051926;28;20032;-82
2022/07/17 09:10:49;;;;;;;3.55;0.50;;;19.50;65.10;;;;;;5051790;28;20024;-81
2022/07/17 09:13:22;;;;;;;3.53;0.47;;;19.50;65.10;;;;;;5053056;28;20029;-82
2022/07/17 09:15:50;;;;;;;2.25;0.50;;;19.60;65.20;;;;;;5051641;28;20017;-81
2022/07/17 09:18:17;;;;;;;3.42;0.82;;;19.70;65.20;;;;;;5051863;28;20028;-81
2022/07/17 09:20:56;;;;;;;3.00;0.50;;;19.80;65.00;;;;;;5051849;28;20120;-82
2022/07/17 09:23:24;;;;;;;2.70;0.47;;;19.80;64.90;;;;;;5051708;28;20108;-82
2022/07/17 09:25:53;;;;;;;3.50;0.50;;;19.90;64.80;;;;;;5051765;28;20032;-82
2022/07/17 09:28:22;;;;;;;2.42;0.50;;;19.90;64.40;;;;;;5051791;28;20060;-82
2022/07/17 09:30:50;;;;;;;2.85;0.63;;;20.10;64.00;;;;;;5052950;28;20029;-82
2022/07/17 09:33:19;;;;;;;5.03;0.60;;;20.20;63.70;;;;;;5051911;28;20033;-82
2022/07/17 09:36:09;;;;;;;2.58;0.50;;;20.20;63.30;;;;;;5051563;28;20046;-80
2022/07/17 09:38:36;;;;;;;3.75;0.60;;;20.30;62.70;;;;;;5045090;28;20037;-80
2022/07/17 09:41:09;;;;;;;3.75;0.60;;;20.40;62.60;;;;;;5051315;28;20108;-81
2022/07/17 09:43:42;;;;;;;2.08;0.40;;;20.40;62.10;;;;;;5051428;28;20017;-81
2022/07/17 09:46:08;;;;;;;5.05;0.60;;;20.50;62.10;;;;;;5035300;28;20056;-82
2022/07/17 09:48:39;;;;;;;3.53;0.52;;;20.60;62.10;;;;;;5052826;28;20037;-81
2022/07/17 09:51:06;;;;;;;4.35;0.63;;;20.70;61.90;;;;;;5051395;28;20033;-79
2022/07/17 09:53:36;;;;;;;4.18;0.80;;;20.80;61.80;;;;;;5035113;28;20128;-80
2022/07/17 09:56:02;;;;;;;1.38;0.40;;;20.80;61.50;;;;;;5052522;28;20485;-79
2022/07/17 09:58:30;;;;;;;2.33;0.47;;;21.00;61.40;;;;;;5051317;28;20021;-80
2022/07/17 10:00:56;;;;;;;3.72;0.50;;;21.00;60.90;;;;;;5052883;28;20025;-81
2022/07/17 10:03:22;;;;;;;2.72;0.47;;;21.10;60.60;;;;;;5038766;28;20069;-80
2022/07/17 10:05:48;;;;;;;5.28;0.70;;;21.10;60.30;;;;;;5056724;28;20346;-80
2022/07/17 10:08:14;;;;;;;2.35;0.40;;;21.20;60.20;;;;;;5038305;28;20075;-80
2022/07/17 10:10:40;;;;;;;1.95;0.50;;;21.30;60.10;;;;;;5054767;28;20048;-80
2022/07/17 10:13:06;;;;;;;5.03;1.08;;;21.40;60.20;;;;;;5038004;28;20515;-80
2022/07/17 10:15:31;;;;;;;2.83;1.00;;;21.40;60.20;;;;;;5054544;28;20087;-81
2022/07/17 10:18:07;;;;;;;3.50;0.65;;;21.50;60.00;;;;;;5055029;28;20029;-78
2022/07/17 10:20:33;;;;;;;4.35;0.73;;;21.60;60.70;;;;;;5054780;28;20423;-78
2022/07/17 10:22:59;;;;;;;3.60;0.63;;;21.70;60.00;;;;;;5038253;28;20052;-79
2022/07/17 10:25:24;;;;;;;4.40;0.60;;;21.80;59.80;;;;;;5037968;28;20485;-78
2022/07/17 10:27:55;;;;;;;3.15;0.60;;;21.80;59.30;;;;;;5037812;28;20538;-80
2022/07/17 10:30:29;;;;;;;3.42;0.50;;;21.90;59.20;;;;;;5037859;28;20029;-79
2022/07/17 10:33:00;;;;;;;2.95;0.60;;;22.00;58.90;;;;;;5055688;28;20032;-79
2022/07/17 10:35:28;;;;;;;2.17;0.40;;;22.10;58.80;;;;;;5054955;28;20059;-80
2022/07/17 10:37:57;;;;;;;4.32;0.50;;;22.30;58.70;;;;;;5039161;28;20036;-80
2022/07/17 10:40:29;;;;;;;4.60;0.70;;;22.40;58.40;;;;;;5038033;28;20025;-78
2022/07/17 10:43:06;;;;;;;2.17;0.40;;;22.60;58.10;;;;;;5055595;28;20033;-79
2022/07/17 10:45:39;;;;;;;3.90;0.40;;;22.80;57.70;;;;;;5054186;28;20283;-79
2022/07/17 10:48:13;;;;;;;1.58;0.30;;;22.90;57.40;;;;;;5054350;28;20029;-80
2022/07/17 10:50:49;;;;;;;3.65;0.60;;;23.10;57.10;;;;;;5070877;28;20032;-80
2022/07/17 10:53:17;;;;;;;2.40;0.50;;;23.30;56.70;;;;;;5065067;28;20045;-80
2022/07/17 10:55:45;;;;;;;2.95;0.50;;;23.50;56.40;;;;;;5057362;28;20029;-80
2022/07/17 10:58:20;;;;;;;3.70;0.60;;;23.70;55.90;;;;;;5057478;28;20017;-80
2022/07/17 11:00:57;;;;;;;2.55;0.38;;;23.90;55.30;;;;;;5057039;28;20540;-80
2022/07/17 11:03:23;;;;;;;2.25;0.50;;;24.10;55.00;;;;;;5057195;28;20063;-80
2022/07/17 11:05:48;;;;;;;1.42;0.45;;;24.30;54.90;;;;;;5075272;28;20028;-80
2022/07/17 11:08:14;;;;;;;3.85;0.43;;;24.50;54.40;;;;;;5024429;28;20610;-81
2022/07/17 11:10:40;;;;;;;4.07;0.63;;;24.70;53.80;;;;;;5056980;28;20074;-80
2022/07/17 11:13:14;;;;;;;4.90;0.50;;;24.80;53.30;;;;;;5074797;28;20028;-79
2022/07/17 11:15:45;;;;;;;2.10;0.50;;;25.10;52.80;;;;;;5056924;28;20025;-80
2022/07/17 11:18:17;;;;;;;5.82;0.50;;;25.30;52.40;;;;;;5074883;28;20417;-80
2022/07/17 11:20:57;;;;;;;1.98;0.50;;;25.50;52.00;;;;;;5074760;28;20468;-80
2022/07/17 11:23:25;;;;;;;2.33;0.50;;;25.70;51.50;;;;;;5073968;28;20025;-81
2022/07/17 11:26:00;;;;;;;2.58;0.60;;;25.90;51.50;;;;;;5057319;28;20443;-80
2022/07/17 11:28:30;;;;;;;2.05;0.43;;;26.10;51.60;;;;;;5075102;28;20350;-81
2022/07/17 11:30:56;;;;;;;3.30;0.50;;;26.20;50.80;;;;;;5074574;28;20020;-82
2022/07/17 11:33:21;;;;;;;2.65;0.50;;;26.40;50.60;;;;;;5074539;28;20025;-81
2022/07/17 11:35:47;;;;;;;1.60;0.40;;;26.60;50.10;;;;;;5056542;28;20492;-81
2022/07/17 11:38:13;;;;;;;6.40;0.47;;;26.80;49.70;;;;;;5039876;28;20036;-80
2022/07/17 11:40:48;;;;;;;1.48;0.40;;;27.00;49.60;;;;;;5023305;28;20017;-81
2022/07/17 11:43:15;;;;;;;3.22;0.60;;;27.20;49.40;;;;;;5056200;28;20111;-82
2022/07/17 11:45:44;;;;;;;3.35;0.60;;;27.50;49.50;;;;;;5039432;28;20555;-82
2022/07/17 11:48:10;;;;;;;3.30;0.50;;;27.70;49.00;;;;;;5056086;28;20055;-81
2022/07/17 11:50:36;;;;;;;4.10;0.40;;;27.90;48.50;;;;;;5056142;28;20024;-83
2022/07/17 11:53:04;;;;;;;3.22;0.50;;;28.20;48.20;;;;;;5073568;28;20439;-81
2022/07/17 11:55:40;;;;;;;3.15;0.45;;;28.40;47.80;;;;;;5055887;28;20073;-82
2022/07/17 11:58:06;;;;;;;2.05;0.40;;;28.60;47.00;;;;;;5056187;28;20031;-81
2022/07/17 12:00:32;;;;;;;3.63;0.50;;;28.80;46.80;;;;;;5073999;28;20029;-82
2022/07/17 12:03:07;;;;;;;2.97;0.50;;;29.00;46.40;;;;;;5056005;28;20028;-81
2022/07/17 12:05:35;;;;;;;4.63;0.50;;;29.30;45.80;;;;;;5056107;28;20028;-82
2022/07/17 12:08:01;;;;;;;1.45;0.30;;;29.40;45.80;;;;;;5047584;28;20024;-82
2022/07/17 12:10:30;;;;;;;2.33;0.70;;;29.70;46.50;;;;;;5080317;28;20021;-81
2022/07/17 12:12:57;;;;;;;1.63;0.50;;;29.90;45.60;;;;;;5073543;28;20024;-81
2022/07/17 12:15:34;;;;;;;1.92;0.45;;;30.10;45.20;;;;;;5072442;28;20032;-82
2022/07/17 12:18:00;;;;;;;3.40;0.75;;;30.30;44.60;;;;;;5073764;28;20013;-81
2022/07/17 12:20:46;;;;;;;2.30;0.50;;;30.50;44.80;;;;;;5090216;28;20353;-82
2022/07/17 12:23:32;;;;;;;1.75;0.40;;;30.70;44.00;;;;;;5055265;28;20039;-82
2022/07/17 12:26:08;;;;;;;4.43;0.55;;;30.90;44.30;;;;;;5055557;28;20607;-82
2022/07/17 12:28:34;;;;;;;3.20;0.40;;;31.10;43.70;;;;;;5072563;28;20029;-82
2022/07/17 12:31:00;;;;;;;1.83;0.40;;;31.30;43.70;;;;;;5073501;28;20023;-82
2022/07/17 12:33:26;;;;;;;4.28;0.57;;;31.50;43.40;;;;;;5055814;28;20020;-82
2022/07/17 12:35:51;;;;;;;2.30;0.50;;;31.60;43.00;;;;;;5054605;28;20029;-80
2022/07/17 12:38:17;;;;;;;2.25;0.40;;;31.90;42.60;;;;;;5060061;28;20473;-82
2022/07/17 12:40:43;;;;;;;1.90;0.38;;;32.10;42.00;;;;;;5056896;28;20021;-81
2022/07/17 12:43:09;;;;;;;3.53;0.50;;;32.30;41.70;;;;;;5050482;28;20025;-81
2022/07/17 12:45:35;;;;;;;3.83;0.60;;;32.40;41.30;;;;;;5036449;28;20032;-81
2022/07/17 12:48:01;;;;;;;4.25;0.68;;;32.60;41.10;;;;;;5035386;28;20025;-81